Time;durP1;ratioP1;P1;durP2;ratioP2;P2;SDS_P1;SDS_P2;PMS_P1;PMS_P2;Temp;Humidity;BMP_temperature;BMP_pressure;BME280_temperature;BME280_humidity;BME280_pressure;Samples;Min_cycle;Max_cycle;Signal;HPM_P1;HPM_P2
2022/03/07 00:02:07;;;;;;;8.07;3.63;;;;;;;13.57;33.31;102896.88;5111969;27;20460;-73
2022/03/07 00:04:33;;;;;;;8.33;4.20;;;;;;;13.56;33.16;102895.16;5131746;27;20041;-72
2022/03/07 00:06:58;;;;;;;7.00;4.20;;;;;;;13.36;33.18;102908.94;5133018;27;20049;-75
2022/03/07 00:09:24;;;;;;;6.90;4.27;;;;;;;12.94;33.58;102904.91;5112806;27;20053;-73
2022/03/07 00:11:49;;;;;;;6.63;3.90;;;;;;;13.35;33.19;102912.44;5112057;27;20015;-73
2022/03/07 00:14:14;;;;;;;8.30;4.57;;;;;;;12.82;34.19;102910.00;5113049;27;20030;-73
2022/03/07 00:16:40;;;;;;;11.17;5.03;;;;;;;13.49;33.87;102906.44;5113347;27;20051;-73
2022/03/07 00:19:06;;;;;;;10.60;4.90;;;;;;;13.33;33.43;102908.88;5112713;27;20038;-72
2022/03/07 00:21:31;;;;;;;10.47;4.67;;;;;;;12.76;34.06;102908.13;5112761;27;20027;-73
2022/03/07 00:23:57;;;;;;;7.63;4.27;;;;;;;13.28;33.20;102907.94;5111926;27;20498;-73
2022/03/07 00:26:23;;;;;;;8.73;4.30;;;;;;;13.13;33.46;102915.63;5110901;27;20015;-73
2022/03/07 00:28:48;;;;;;;9.73;4.10;;;;;;;13.54;32.51;102908.25;5111936;27;20466;-73
2022/03/07 00:31:14;;;;;;;9.60;4.07;;;;;;;12.99;33.40;102915.47;5111405;27;20023;-72
2022/03/07 00:33:41;;;;;;;11.20;4.33;;;;;;;13.21;33.21;102925.34;5114183;27;20019;-72
2022/03/07 00:36:07;;;;;;;8.80;4.57;;;;;;;13.23;33.44;102923.63;5111903;27;20034;-73
2022/03/07 00:38:33;;;;;;;8.27;4.50;;;;;;;13.29;33.26;102921.97;5111608;27;20039;-72
2022/03/07 00:40:58;;;;;;;7.73;4.40;;;;;;;13.63;32.52;102920.63;5111368;27;20072;-73
2022/03/07 00:43:24;;;;;;;5.40;4.17;;;;;;;13.12;33.90;102930.50;5110693;27;20031;-73
2022/03/07 00:45:50;;;;;;;8.70;4.20;;;;;;;13.52;33.20;102928.38;5130518;27;20031;-73
2022/03/07 00:48:16;;;;;;;7.90;4.30;;;;;;;13.01;33.52;102933.00;5109428;27;20466;-72
2022/03/07 00:50:47;;;;;;;7.63;4.47;;;;;;;13.36;33.09;102929.94;5103663;27;20038;-73
2022/03/07 00:53:13;;;;;;;8.67;4.57;;;;;;;12.90;34.09;102926.72;5128389;27;20027;-72
2022/03/07 00:55:39;;;;;;;10.63;3.80;;;;;;;13.07;33.73;102919.06;5111386;27;21275;-72
2022/03/07 00:58:05;;;;;;;7.37;4.60;;;;;;;12.89;33.82;102932.81;5112888;27;20019;-73
2022/03/07 01:00:32;;;;;;;9.97;4.60;;;;;;;12.93;34.04;102924.13;5110539;27;20051;-72
2022/03/07 01:02:58;;;;;;;6.87;4.40;;;;;;;12.77;34.01;102927.41;5110316;27;20018;-72
2022/03/07 01:05:23;;;;;;;8.93;4.50;;;;;;;12.63;34.52;102925.47;5130740;27;20367;-72
2022/03/07 01:07:49;;;;;;;7.70;4.37;;;;;;;12.52;34.16;102932.28;5095632;27;20478;-73
2022/03/07 01:10:14;;;;;;;9.00;4.67;;;;;;;12.61;34.23;102942.94;5106558;27;20492;-72
2022/03/07 01:12:39;;;;;;;5.87;3.67;;;;;;;13.00;34.01;102936.47;5128428;27;20054;-73
2022/03/07 01:15:06;;;;;;;11.57;4.70;;;;;;;12.87;33.63;102929.28;5108871;27;20023;-73
2022/03/07 01:17:32;;;;;;;11.23;4.70;;;;;;;12.69;33.95;102927.28;5112998;27;20402;-73
2022/03/07 01:19:57;;;;;;;8.83;4.60;;;;;;;12.55;33.96;102932.34;5110982;27;20019;-73
2022/03/07 01:22:23;;;;;;;8.53;4.47;;;;;;;12.49;34.00;102927.00;5126031;27;20557;-73
2022/03/07 01:24:48;;;;;;;7.17;4.50;;;;;;;12.32;34.46;102927.63;5130600;27;20026;-72
2022/03/07 01:27:14;;;;;;;7.27;4.57;;;;;;;12.67;33.94;102927.28;5111445;27;20493;-73
2022/03/07 01:29:39;;;;;;;8.90;4.20;;;;;;;12.58;34.59;102932.38;5111125;27;20419;-73
2022/03/07 01:32:05;;;;;;;12.20;4.73;;;;;;;12.30;34.45;102926.69;5110885;27;20433;-73
2022/03/07 01:34:31;;;;;;;12.87;5.47;;;;;;;12.02;35.02;102930.59;5110895;27;20114;-73
2022/03/07 01:36:56;;;;;;;7.43;4.53;;;;;;;12.46;34.37;102933.09;5111806;27;20236;-73
2022/03/07 01:39:21;;;;;;;9.93;5.47;;;;;;;12.86;33.84;102923.16;5108558;27;20394;-72
2022/03/07 01:41:47;;;;;;;9.87;4.87;;;;;;;12.92;33.60;102930.22;5101127;28;20023;-72
2022/03/07 01:44:21;;;;;;;9.90;5.03;;;;;;;12.87;33.98;102932.81;5104360;27;20072;-72
2022/03/07 01:46:47;;;;;;;10.90;5.17;;;;;;;12.75;33.74;102923.88;5092665;28;20051;-72
2022/03/07 01:49:13;;;;;;;9.93;5.30;;;;;;;12.71;33.41;102926.44;5102732;27;20023;-72
2022/03/07 01:51:41;;;;;;;10.63;4.53;;;;;;;12.71;34.07;102928.22;5110807;27;20415;-73
2022/03/07 01:54:09;;;;;;;8.23;4.77;;;;;;;12.65;34.28;102921.13;5109813;27;20025;-74
2022/03/07 01:56:34;;;;;;;7.73;4.67;;;;;;;12.66;33.84;102925.50;5110590;27;20053;-73
2022/03/07 01:59:00;;;;;;;10.93;4.80;;;;;;;12.39;33.88;102925.94;5110654;27;20065;-73
2022/03/07 02:01:25;;;;;;;7.60;4.20;;;;;;;12.52;33.27;102927.03;5109020;27;20274;-73
2022/03/07 02:03:50;;;;;;;7.00;4.37;;;;;;;12.53;33.65;102923.56;5109315;27;20418;-73
2022/03/07 02:06:16;;;;;;;8.57;4.93;;;;;;;12.43;33.85;102919.03;5110487;27;20043;-73
2022/03/07 02:08:42;;;;;;;6.03;3.83;;;;;;;12.22;34.24;102913.47;5131121;27;20011;-73
2022/03/07 02:11:09;;;;;;;10.93;4.80;;;;;;;12.23;34.82;102914.34;5107505;27;20398;-73
2022/03/07 02:13:35;;;;;;;7.70;4.27;;;;;;;12.21;34.20;102910.81;5112261;28;20027;-73
2022/03/07 02:16:01;;;;;;;7.83;4.43;;;;;;;12.54;34.30;102920.06;5110525;28;20031;-73
2022/03/07 02:18:29;;;;;;;7.07;4.33;;;;;;;12.91;33.14;102915.34;5128053;28;20604;-73
2022/03/07 02:21:04;;;;;;;8.63;4.57;;;;;;;13.00;32.67;102904.97;5127572;28;20019;-73
2022/03/07 02:23:30;;;;;;;9.43;4.67;;;;;;;12.53;33.99;102920.94;5110398;28;20569;-73
2022/03/07 02:25:55;;;;;;;7.03;4.40;;;;;;;12.90;33.25;102913.59;5109370;28;20110;-73
2022/03/07 02:28:20;;;;;;;8.30;4.20;;;;;;;12.99;33.32;102913.69;5130168;28;20040;-73
2022/03/07 02:30:46;;;;;;;6.23;3.97;;;;;;;13.02;32.85;102908.50;5103152;28;20098;-74
2022/03/07 02:33:12;;;;;;;6.43;4.20;;;;;;;12.82;33.54;102904.75;5110429;28;20125;-73
2022/03/07 02:35:38;;;;;;;7.00;4.47;;;;;;;13.11;32.79;102896.38;5108830;28;20019;-73
2022/03/07 02:38:16;;;;;;;10.33;5.63;;;;;;;12.73;33.72;102906.38;5110576;28;20762;-73
2022/03/07 02:40:42;;;;;;;10.80;4.67;;;;;;;12.86;33.13;102902.16;5110305;28;20027;-73
2022/03/07 02:43:08;;;;;;;11.83;5.27;;;;;;;12.95;33.04;102903.16;5111017;28;20402;-73
2022/03/07 02:45:33;;;;;;;6.10;4.00;;;;;;;12.64;33.12;102901.00;5110328;28;20019;-73
2022/03/07 02:47:59;;;;;;;9.03;4.40;;;;;;;12.20;33.95;102903.81;5111861;28;20523;-73
2022/03/07 02:50:24;;;;;;;11.50;4.63;;;;;;;12.61;33.67;102906.22;5128216;28;20109;-73
2022/03/07 02:52:49;;;;;;;9.97;5.17;;;;;;;12.70;33.29;102901.06;5108145;28;20055;-73
2022/03/07 02:55:15;;;;;;;6.40;3.77;;;;;;;12.78;33.47;102892.44;5126566;28;20042;-73
2022/03/07 02:57:40;;;;;;;7.13;4.10;;;;;;;12.83;33.61;102902.13;5112300;28;20048;-72
2022/03/07 03:00:06;;;;;;;8.90;4.70;;;;;;;13.16;32.42;102889.41;5127367;28;20025;-73
2022/03/07 03:02:32;;;;;;;6.70;4.07;;;;;;;13.02;32.97;102892.75;5109630;28;20038;-73
2022/03/07 03:04:57;;;;;;;7.73;4.77;;;;;;;12.75;33.21;102897.63;5110546;28;20087;-74
2022/03/07 03:07:22;;;;;;;7.60;4.13;;;;;;;12.81;33.68;102897.72;5101757;28;20059;-73
2022/03/07 03:09:48;;;;;;;9.97;4.83;;;;;;;12.82;33.28;102895.13;5109610;28;20015;-73
2022/03/07 03:12:13;;;;;;;8.60;4.70;;;;;;;12.49;34.01;102895.53;5110176;28;20172;-73
2022/03/07 03:14:39;;;;;;;7.57;4.60;;;;;;;12.77;34.01;102895.91;5100959;28;20447;-73
2022/03/07 03:17:05;;;;;;;9.03;5.27;;;;;;;13.13;33.25;102897.25;5109908;28;20024;-74
2022/03/07 03:19:30;;;;;;;9.37;4.73;;;;;;;12.87;33.01;102903.94;5110503;28;20054;-74
2022/03/07 03:21:55;;;;;;;11.13;4.93;;;;;;;12.60;33.95;102904.44;5109645;28;20027;-74
2022/03/07 03:24:21;;;;;;;7.73;4.80;;;;;;;12.36;34.58;102900.59;5125239;27;20027;-74
2022/03/07 03:26:46;;;;;;;9.87;4.93;;;;;;;12.77;33.36;102901.16;5111229;27;20016;-73
2022/03/07 03:29:11;;;;;;;11.87;4.87;;;;;;;12.51;33.99;102899.91;5112277;27;20058;-73
2022/03/07 03:31:37;;;;;;;7.33;5.13;;;;;;;12.61;34.40;102895.72;5115509;27;20038;-73
2022/03/07 03:34:02;;;;;;;8.23;4.73;;;;;;;12.78;33.54;102900.31;5103889;28;20026;-73
2022/03/07 03:36:27;;;;;;;7.17;4.97;;;;;;;12.67;33.92;102898.41;5105749;27;20495;-73
2022/03/07 03:38:53;;;;;;;8.03;4.93;;;;;;;12.28;34.63;102896.06;5112436;27;20019;-73
2022/03/07 03:41:18;;;;;;;10.50;4.90;;;;;;;12.70;34.86;102894.94;5112809;27;20740;-74
2022/03/07 03:43:43;;;;;;;8.50;4.83;;;;;;;13.23;33.77;102899.13;5112367;27;20023;-74
2022/03/07 03:46:09;;;;;;;12.77;5.93;;;;;;;12.70;34.19;102885.31;5131886;27;20096;-74
2022/03/07 03:48:34;;;;;;;12.00;5.70;;;;;;;12.60;34.18;102886.06;5112243;27;20031;-73
2022/03/07 03:50:59;;;;;;;8.77;4.83;;;;;;;12.88;33.34;102889.94;5113310;27;20029;-74
2022/03/07 03:53:25;;;;;;;11.87;5.20;;;;;;;12.39;34.59;102890.13;5106216;28;20501;-73
2022/03/07 03:55:50;;;;;;;8.53;4.83;;;;;;;12.77;33.97;102882.78;5109772;27;20106;-74
2022/03/07 03:58:15;;;;;;;13.50;5.47;;;;;;;12.14;34.72;102882.75;5102754;27;20043;-73
2022/03/07 04:00:41;;;;;;;10.23;5.50;;;;;;;12.32;34.46;102887.38;5108794;27;20110;-72
2022/03/07 04:03:06;;;;;;;8.90;4.90;;;;;;;12.68;33.82;102880.91;5110850;27;20023;-73
2022/03/07 04:05:32;;;;;;;10.83;5.27;;;;;;;12.97;32.99;102873.44;5113085;27;20031;-73
2022/03/07 04:07:57;;;;;;;11.57;5.50;;;;;;;12.11;34.22;102877.47;5130476;27;20029;-73
2022/03/07 04:10:22;;;;;;;10.50;5.57;;;;;;;12.43;34.00;102887.56;5108592;27;20039;-73
2022/03/07 04:12:48;;;;;;;8.00;4.57;;;;;;;12.27;34.49;102889.94;5113946;27;20027;-72
2022/03/07 04:15:13;;;;;;;8.13;4.93;;;;;;;12.16;34.67;102891.53;5131555;27;20019;-72
2022/03/07 04:17:41;;;;;;;12.00;6.30;;;;;;;11.85;35.36;102886.59;5113535;27;20031;-73
2022/03/07 04:20:07;;;;;;;9.50;4.63;;;;;;;11.73;35.67;102885.50;5131961;27;20022;-73
2022/03/07 04:22:33;;;;;;;13.37;5.77;;;;;;;12.42;34.68;102884.06;5113699;27;20130;-73
2022/03/07 04:24:58;;;;;;;9.83;5.50;;;;;;;12.61;33.93;102887.84;5131441;27;20115;-73
2022/03/07 04:27:24;;;;;;;11.47;6.23;;;;;;;12.55;33.89;102880.75;5112105;27;20587;-75
2022/03/07 04:29:50;;;;;;;11.00;5.00;;;;;;;12.31;34.43;102886.53;5112746;27;20023;-73
2022/03/07 04:32:15;;;;;;;12.23;5.77;;;;;;;12.18;34.92;102884.56;5109368;27;20058;-73
2022/03/07 04:34:40;;;;;;;10.07;5.67;;;;;;;12.12;34.47;102884.47;5131842;27;20035;-73
2022/03/07 04:37:07;;;;;;;10.90;6.03;;;;;;;12.02;35.05;102889.56;5109830;27;20050;-73
2022/03/07 04:39:32;;;;;;;9.03;5.23;;;;;;;12.35;34.08;102883.09;5108596;27;20106;-72
2022/03/07 04:41:58;;;;;;;11.47;4.90;;;;;;;12.07;34.92;102891.38;5111425;27;20106;-73
2022/03/07 04:44:23;;;;;;;10.93;5.17;;;;;;;12.26;34.35;102887.31;5096827;27;20127;-72
2022/03/07 04:46:48;;;;;;;9.80;5.37;;;;;;;12.03;34.79;102880.84;5108210;27;20022;-73
2022/03/07 04:49:14;;;;;;;11.67;5.17;;;;;;;11.95;34.55;102877.22;5110691;27;20031;-73
2022/03/07 04:51:45;;;;;;;14.00;5.30;;;;;;;11.87;34.46;102876.16;5129667;27;20034;-72
2022/03/07 04:54:10;;;;;;;11.57;5.70;;;;;;;11.54;35.48;102885.19;5111007;27;20070;-73
2022/03/07 04:56:35;;;;;;;10.63;5.17;;;;;;;11.75;35.27;102881.19;5130379;27;20058;-73
2022/03/07 04:59:01;;;;;;;13.07;5.20;;;;;;;12.11;34.08;102887.94;5105540;27;20029;-73
2022/03/07 05:01:26;;;;;;;11.37;5.53;;;;;;;11.68;34.76;102883.69;5093376;28;20019;-72
2022/03/07 05:03:51;;;;;;;10.67;5.10;;;;;;;11.73;34.74;102885.50;5106344;27;20015;-73
2022/03/07 05:06:17;;;;;;;12.27;5.40;;;;;;;11.76;34.58;102885.56;5111206;27;20023;-73
2022/03/07 05:08:42;;;;;;;13.33;5.57;;;;;;;11.40;35.32;102886.66;5112406;27;20386;-73
2022/03/07 05:11:08;;;;;;;9.40;5.50;;;;;;;11.59;35.20;102880.88;5127668;27;20019;-73
2022/03/07 05:13:33;;;;;;;11.97;5.00;;;;;;;11.73;34.72;102885.50;5111511;27;20088;-73
2022/03/07 05:15:59;;;;;;;9.63;5.30;;;;;;;11.32;35.60;102890.00;5111764;27;20031;-75
2022/03/07 05:18:24;;;;;;;9.93;5.33;;;;;;;11.37;35.02;102883.13;5112964;27;20023;-73
2022/03/07 05:20:49;;;;;;;15.30;6.10;;;;;;;11.18;35.67;102886.22;5110882;27;20019;-73
2022/03/07 05:23:15;;;;;;;12.60;5.53;;;;;;;10.58;36.82;102883.22;5111023;27;20082;-73
2022/03/07 05:25:40;;;;;;;15.97;6.67;;;;;;;11.22;35.77;102893.28;5111812;27;20030;-73
2022/03/07 05:28:06;;;;;;;12.23;5.67;;;;;;;11.13;35.82;102893.13;5110234;27;20034;-73
2022/03/07 05:30:31;;;;;;;11.10;5.63;;;;;;;11.40;35.51;102887.50;5110671;27;20699;-73
2022/03/07 05:32:57;;;;;;;9.53;5.77;;;;;;;10.94;36.62;102886.59;5111618;27;20119;-73
2022/03/07 05:35:23;;;;;;;10.43;5.40;;;;;;;10.90;36.07;102890.88;5110593;27;20064;-73
2022/03/07 05:37:48;;;;;;;10.80;5.60;;;;;;;10.49;36.71;102894.31;5110148;27;20035;-73
2022/03/07 05:40:15;;;;;;;13.80;5.83;;;;;;;11.20;36.11;102889.75;5109943;27;20023;-75
2022/03/07 05:42:41;;;;;;;11.10;5.80;;;;;;;10.88;36.33;102887.38;5109952;27;20027;-75
2022/03/07 05:45:08;;;;;;;11.50;5.47;;;;;;;10.76;36.32;102893.19;5108030;27;20046;-75
2022/03/07 05:47:33;;;;;;;12.30;5.20;;;;;;;11.24;35.88;102896.81;5130083;27;20069;-75
2022/03/07 05:49:59;;;;;;;10.83;5.70;;;;;;;11.05;36.13;102892.06;5109576;27;20042;-75
2022/03/07 05:52:24;;;;;;;8.33;4.87;;;;;;;10.83;36.58;102899.47;5110191;27;20610;-75
2022/03/07 05:54:50;;;;;;;9.53;5.60;;;;;;;11.42;35.52;102903.28;5109591;27;20027;-75
2022/03/07 05:57:15;;;;;;;11.33;5.77;;;;;;;11.21;35.44;102904.63;5102296;28;20104;-74
2022/03/07 05:59:41;;;;;;;9.33;5.50;;;;;;;11.22;35.61;102908.97;5111879;27;20050;-75
2022/03/07 06:02:07;;;;;;;10.80;5.30;;;;;;;11.09;35.70;102907.84;5109773;27;20096;-75
2022/03/07 06:04:32;;;;;;;13.63;5.57;;;;;;;10.66;36.51;102907.81;5111378;27;20058;-75
2022/03/07 06:06:58;;;;;;;9.47;5.63;;;;;;;11.26;35.58;102916.03;5110890;27;20019;-75
2022/03/07 06:09:23;;;;;;;9.50;5.10;;;;;;;10.37;37.32;102919.31;5109534;27;20088;-75
2022/03/07 06:11:48;;;;;;;9.20;5.10;;;;;;;10.52;36.90;102924.91;5099561;28;20041;-75
2022/03/07 06:14:14;;;;;;;11.93;5.57;;;;;;;10.49;36.83;102924.84;5122808;27;20083;-75
2022/03/07 06:16:40;;;;;;;9.53;5.00;;;;;;;9.99;37.61;102934.03;5109013;28;20025;-75
2022/03/07 06:19:05;;;;;;;9.80;5.30;;;;;;;10.54;36.87;102936.28;5110592;28;20031;-75
2022/03/07 06:21:30;;;;;;;11.73;5.27;;;;;;;10.50;37.37;102932.72;5104774;28;20023;-75
2022/03/07 06:23:56;;;;;;;13.83;5.97;;;;;;;9.99;37.84;102934.03;5099594;28;20398;-74
2022/03/07 06:26:23;;;;;;;11.20;5.60;;;;;;;10.18;37.73;102929.28;5128327;28;20023;-75
2022/03/07 06:28:48;;;;;;;15.53;5.90;;;;;;;9.97;37.48;102934.84;5111435;28;20012;-75
2022/03/07 06:31:13;;;;;;;12.40;6.00;;;;;;;10.18;37.75;102926.69;5127125;28;20034;-74
2022/03/07 06:33:39;;;;;;;11.90;5.77;;;;;;;10.19;37.04;102926.72;5110241;28;20126;-75
2022/03/07 06:36:06;;;;;;;11.00;5.77;;;;;;;10.57;37.38;102931.13;5127633;28;20623;-75
2022/03/07 06:38:31;;;;;;;12.73;5.13;;;;;;;10.26;37.40;102929.47;5108676;28;20047;-75
2022/03/07 06:40:57;;;;;;;13.30;6.60;;;;;;;10.13;37.83;102926.53;5105454;28;20062;-72
2022/03/07 06:43:22;;;;;;;12.57;5.23;;;;;;;9.81;38.33;102938.78;5107545;28;20178;-75
2022/03/07 06:45:48;;;;;;;12.00;5.70;;;;;;;10.39;37.05;102928.97;5085047;28;20080;-75
2022/03/07 06:48:13;;;;;;;11.67;5.80;;;;;;;10.72;36.38;102934.97;5110821;28;20420;-75
2022/03/07 06:50:38;;;;;;;13.67;5.90;;;;;;;10.64;36.34;102930.41;5103655;28;20036;-74
2022/03/07 06:53:04;;;;;;;13.10;5.63;;;;;;;10.84;36.36;102935.25;5111055;28;20391;-75
2022/03/07 06:55:30;;;;;;;11.43;5.70;;;;;;;10.87;36.66;102943.16;5129587;28;20391;-74
2022/03/07 06:57:55;;;;;;;10.63;5.33;;;;;;;9.89;38.12;102934.66;5111923;28;20462;-74
2022/03/07 07:00:21;;;;;;;15.60;6.53;;;;;;;10.74;36.61;102935.88;5111538;27;20019;-75
2022/03/07 07:02:47;;;;;;;10.37;5.80;;;;;;;10.05;38.09;102938.53;5116116;27;20023;-75
2022/03/07 07:05:14;;;;;;;17.70;6.53;;;;;;;10.01;38.04;102944.53;5114404;27;20091;-75
2022/03/07 07:07:39;;;;;;;13.10;6.13;;;;;;;10.37;37.40;102935.88;5132095;27;20019;-75
2022/03/07 07:10:06;;;;;;;17.80;6.70;;;;;;;10.16;37.79;102949.25;5113841;27;20436;-75
2022/03/07 07:12:32;;;;;;;14.47;7.00;;;;;;;9.85;38.22;102945.88;5115622;27;20268;-73
2022/03/07 07:14:57;;;;;;;15.63;6.43;;;;;;;10.98;37.32;102946.88;5115178;27;20030;-76
2022/03/07 07:17:22;;;;;;;10.47;5.70;;;;;;;11.22;35.32;102948.25;5115019;27;20142;-75
2022/03/07 07:19:48;;;;;;;9.83;5.97;;;;;;;11.84;34.93;102938.97;5133166;27;20103;-76
2022/03/07 07:22:14;;;;;;;12.50;6.03;;;;;;;11.44;35.16;102948.69;5114857;27;20133;-73
2022/03/07 07:24:39;;;;;;;12.63;5.70;;;;;;;10.37;37.18;102950.69;5115306;27;20076;-76
2022/03/07 07:27:06;;;;;;;11.80;6.30;;;;;;;10.33;37.22;102955.81;5113311;27;20074;-75
2022/03/07 07:29:31;;;;;;;10.23;5.83;;;;;;;11.11;35.75;102952.38;5133284;27;20488;-76
2022/03/07 07:31:57;;;;;;;14.03;6.90;;;;;;;11.18;35.94;102959.50;5115182;27;20615;-76
2022/03/07 07:34:22;;;;;;;12.67;6.53;;;;;;;11.14;36.04;102961.19;5110847;27;20038;-77
2022/03/07 07:36:48;;;;;;;14.83;6.73;;;;;;;11.00;36.21;102954.75;5134637;27;20046;-76
2022/03/07 07:39:15;;;;;;;10.60;6.07;;;;;;;11.61;35.51;102960.41;5114868;27;20027;-76
2022/03/07 07:41:40;;;;;;;13.33;7.27;;;;;;;11.92;34.53;102955.72;5114397;27;20031;-76
2022/03/07 07:44:06;;;;;;;12.43;7.10;;;;;;;12.01;34.84;102952.44;5113021;27;20476;-75
2022/03/07 07:46:31;;;;;;;15.07;7.17;;;;;;;12.45;33.94;102947.06;5114217;27;20084;-76
2022/03/07 07:48:57;;;;;;;12.70;6.93;;;;;;;12.92;33.73;102963.50;5113048;27;20030;-76
2022/03/07 07:51:22;;;;;;;13.77;6.67;;;;;;;12.78;33.35;102951.03;5053788;27;20023;-76
2022/03/07 07:53:48;;;;;;;19.70;6.73;;;;;;;14.00;30.92;102952.53;5113623;27;20031;-74
2022/03/07 07:56:13;;;;;;;9.97;6.00;;;;;;;12.65;33.15;102957.88;5132487;27;20031;-73
2022/03/07 07:58:39;;;;;;;13.20;5.67;;;;;;;13.27;32.38;102956.09;5115305;27;20123;-73
2022/03/07 08:01:04;;;;;;;10.67;5.93;;;;;;;13.14;32.59;102959.41;5114722;27;20080;-74
2022/03/07 08:03:30;;;;;;;13.70;6.30;;;;;;;12.81;33.12;102958.94;5112091;27;20389;-74
2022/03/07 08:05:55;;;;;;;12.73;7.13;;;;;;;13.42;32.28;102959.78;5133906;27;20076;-74
2022/03/07 08:08:21;;;;;;;13.23;7.47;;;;;;;12.20;34.07;102962.38;5132593;27;20027;-74
2022/03/07 08:10:46;;;;;;;17.83;7.23;;;;;;;12.12;33.99;102958.75;5114522;27;20120;-74
2022/03/07 08:13:12;;;;;;;12.77;6.93;;;;;;;12.27;33.97;102970.34;5114678;27;20102;-74
2022/03/07 08:15:40;;;;;;;15.50;7.03;;;;;;;11.59;35.08;102972.56;5113984;27;20034;-74
2022/03/07 08:18:06;;;;;;;12.97;6.50;;;;;;;12.41;34.13;102966.22;5132779;27;20049;-73
2022/03/07 08:20:32;;;;;;;11.77;7.23;;;;;;;11.80;34.78;102960.75;5114388;27;20034;-73
2022/03/07 08:22:58;;;;;;;11.63;6.40;;;;;;;12.70;33.60;102958.78;5113868;27;20055;-72
2022/03/07 08:25:23;;;;;;;13.43;7.43;;;;;;;12.50;33.62;102957.59;5114496;27;20079;-73
2022/03/07 08:27:49;;;;;;;12.00;6.97;;;;;;;12.98;33.04;102958.31;5115161;27;20030;-73
2022/03/07 08:30:19;;;;;;;13.07;6.93;;;;;;;11.95;34.49;102961.06;5112827;27;20492;-73
2022/03/07 08:32:45;;;;;;;12.37;7.27;;;;;;;12.04;34.19;102960.34;5113514;27;20031;-74
2022/03/07 08:35:12;;;;;;;14.00;6.50;;;;;;;13.38;32.36;102959.75;5113163;27;20019;-73
2022/03/07 08:37:38;;;;;;;17.20;7.47;;;;;;;12.55;33.77;102963.81;5131996;27;20027;-73
2022/03/07 08:40:06;;;;;;;14.40;7.03;;;;;;;12.82;33.16;102968.59;5112980;27;20494;-73
2022/03/07 08:42:32;;;;;;;13.73;7.20;;;;;;;12.82;33.11;102967.72;5114070;27;20023;-73
2022/03/07 08:44:57;;;;;;;14.73;7.20;;;;;;;13.29;32.10;102972.72;5113144;27;20026;-74
2022/03/07 08:47:23;;;;;;;16.70;7.37;;;;;;;13.40;32.29;102975.53;5114426;27;20106;-73
2022/03/07 08:49:48;;;;;;;14.13;7.10;;;;;;;13.54;32.19;102967.81;5113942;27;20088;-73
2022/03/07 08:52:15;;;;;;;13.20;7.10;;;;;;;13.10;32.25;102962.84;5112582;27;20080;-73
2022/03/07 08:54:42;;;;;;;11.77;5.93;;;;;;;13.29;32.31;102969.22;5113212;27;20447;-74
2022/03/07 08:57:08;;;;;;;11.53;6.73;;;;;;;13.37;32.04;102962.38;5113707;27;20048;-73
2022/03/07 08:59:33;;;;;;;10.33;6.10;;;;;;;13.03;32.62;102962.75;5108126;28;20011;-73
2022/03/07 09:01:58;;;;;;;10.43;6.23;;;;;;;13.31;32.17;102971.03;5114329;27;20466;-73
2022/03/07 09:04:25;;;;;;;11.30;5.97;;;;;;;14.02;31.16;102948.16;5113152;27;20680;-73
2022/03/07 09:06:54;;;;;;;11.33;6.63;;;;;;;13.01;32.20;102969.75;5112888;27;20111;-74
2022/03/07 09:09:19;;;;;;;12.83;5.80;;;;;;;13.75;31.13;102954.00;5131574;27;20023;-73
2022/03/07 09:11:45;;;;;;;9.53;5.77;;;;;;;13.44;31.47;102958.06;5112689;27;20019;-73
2022/03/07 09:14:11;;;;;;;9.73;5.83;;;;;;;13.54;30.72;102959.94;5130639;27;20103;-73
2022/03/07 09:16:36;;;;;;;11.90;6.00;;;;;;;14.16;30.31;102944.78;5119410;27;20034;-74
2022/03/07 09:19:02;;;;;;;9.83;5.23;;;;;;;13.64;30.73;102955.66;5099041;27;20110;-73
2022/03/07 09:21:27;;;;;;;10.83;5.83;;;;;;;13.44;31.73;102958.06;5112972;27;20026;-74
2022/03/07 09:23:52;;;;;;;8.93;5.10;;;;;;;14.22;30.99;102950.09;5130367;27;20054;-73
2022/03/07 09:26:18;;;;;;;10.80;5.60;;;;;;;15.30;29.08;102948.13;5110803;27;20041;-74
2022/03/07 09:28:44;;;;;;;8.20;5.60;;;;;;;17.77;26.41;102934.63;5113623;27;20031;-74
2022/03/07 09:31:10;;;;;;;6.83;4.47;;;;;;;19.14;24.08;102935.13;5113155;27;20075;-74
2022/03/07 09:33:35;;;;;;;9.57;5.00;;;;;;;18.95;23.22;102923.88;5112852;27;20035;-74
2022/03/07 09:36:00;;;;;;;9.03;4.80;;;;;;;19.07;23.34;102933.44;5130343;27;20462;-74
2022/03/07 09:38:28;;;;;;;5.17;3.93;;;;;;;20.81;20.76;102927.16;5112964;27;20026;-74
2022/03/07 09:40:54;;;;;;;9.23;4.13;;;;;;;21.99;20.25;102917.44;5111062;27;20431;-74
2022/03/07 09:43:19;;;;;;;8.67;4.00;;;;;;;20.28;21.54;102918.41;5112783;27;20030;-73
2022/03/07 09:45:45;;;;;;;6.33;3.93;;;;;;;21.96;20.13;102903.34;5130894;27;20106;-73
2022/03/07 09:48:12;;;;;;;4.93;3.83;;;;;;;20.67;20.39;102915.88;5111285;27;20083;-74
2022/03/07 09:50:41;;;;;;;6.18;4.15;;;;;;;21.96;19.21;102903.34;5100206;28;20027;-74
2022/03/07 09:53:07;;;;;;;4.63;3.78;;;;;;;22.71;18.23;102905.81;5107032;27;20034;-73
2022/03/07 09:55:33;;;;;;;9.23;4.15;;;;;;;21.74;19.09;102898.53;5112528;27;20026;-74
2022/03/07 09:57:58;;;;;;;5.45;4.63;;;;;;;21.59;19.45;102898.91;5119353;27;21269;-73
2022/03/07 10:00:24;;;;;;;8.35;4.05;;;;;;;21.41;19.72;102898.41;5103899;27;20490;-73
2022/03/07 10:02:59;;;;;;;7.65;4.00;;;;;;;21.98;19.04;102881.09;5101183;27;20489;-73
2022/03/07 10:05:29;;;;;;;4.55;3.88;;;;;;;22.36;19.08;102886.34;5112626;27;20556;-73
2022/03/07 10:07:55;;;;;;;5.55;3.47;;;;;;;22.42;18.33;102891.50;5109948;27;20067;-73
2022/03/07 10:10:21;;;;;;;4.75;3.50;;;;;;;21.61;18.74;102889.09;5112868;28;20428;-73
2022/03/07 10:12:49;;;;;;;4.60;3.53;;;;;;;20.36;19.45;102897.91;5111569;28;20027;-73
2022/03/07 10:15:17;;;;;;;4.88;3.50;;;;;;;19.48;20.66;102889.59;5111188;28;20537;-72
2022/03/07 10:17:54;;;;;;;7.28;4.13;;;;;;;19.18;21.41;102882.94;5130549;27;20500;-71
2022/03/07 10:20:22;;;;;;;7.30;3.90;;;;;;;17.98;22.51;102882.47;5131043;28;20058;-72
2022/03/07 10:22:54;;;;;;;6.43;3.53;;;;;;;19.06;21.86;102883.97;5129681;28;20047;-72
2022/03/07 10:25:26;;;;;;;10.00;4.40;;;;;;;19.22;21.33;102883.78;5112668;28;20046;-72
2022/03/07 10:27:52;;;;;;;5.50;3.65;;;;;;;19.07;21.58;102880.44;5130459;28;20068;-72
2022/03/07 10:30:25;;;;;;;7.53;4.27;;;;;;;18.01;22.79;102871.88;5129930;28;20397;-72
2022/03/07 10:32:52;;;;;;;;;;;;;;;17.28;23.49;102867.09;5112006;28;20027;-72
2022/03/07 10:35:28;;;;;;;6.33;3.97;;;;;;;18.61;22.56;102870.38;5133591;27;20218;-71
2022/03/07 10:38:03;;;;;;;8.00;3.97;;;;;;;18.99;22.71;102861.97;5114313;27;20365;-72
2022/03/07 10:40:29;;;;;;;4.03;3.43;;;;;;;19.00;21.44;102857.59;5115400;27;20031;-72
2022/03/07 10:42:55;;;;;;;7.93;4.10;;;;;;;19.69;20.99;102858.31;5116354;27;20023;-72
2022/03/07 10:45:23;;;;;;;5.97;4.40;;;;;;;15.98;24.48;102863.94;5122058;27;20089;-72
2022/03/07 10:47:59;;;;;;;5.87;3.57;;;;;;;17.39;23.54;102859.09;5125407;27;20127;-72
2022/03/07 10:50:26;;;;;;;9.23;3.73;;;;;;;17.01;23.72;102851.38;5112310;27;20131;-71
2022/03/07 10:52:58;;;;;;;3.47;3.07;;;;;;;16.43;24.14;102859.47;5112350;27;20026;-72
2022/03/07 10:55:27;;;;;;;6.28;3.97;;;;;;;17.39;23.97;102848.53;5115186;27;20120;-71
2022/03/07 10:57:53;;;;;;;6.37;4.03;;;;;;;18.17;22.67;102837.31;5131933;27;20143;-72
2022/03/07 11:00:20;;;;;;;9.40;3.40;;;;;;;17.83;22.49;102843.75;5114745;27;20125;-72
2022/03/07 11:02:47;;;;;;;5.47;3.97;;;;;;;19.81;21.04;102828.06;5128686;27;20023;-72
2022/03/07 11:05:14;;;;;;;4.00;3.33;;;;;;;19.13;21.86;102835.28;5101333;28;20077;-72
2022/03/07 11:07:45;;;;;;;7.63;3.93;;;;;;;20.06;20.25;102830.28;5104449;27;20492;-72
2022/03/07 11:10:13;;;;;;;5.10;3.90;;;;;;;19.49;20.86;102819.75;5113971;27;20019;-71
2022/03/07 11:12:39;;;;;;;7.47;4.37;;;;;;;21.26;20.18;102811.88;5114565;27;20019;-72
2022/03/07 11:15:09;;;;;;;6.03;3.60;;;;;;;19.77;20.84;102829.88;5115252;27;20498;-72
2022/03/07 11:17:38;;;;;;;4.33;3.60;;;;;;;19.21;21.67;102829.03;5115170;27;20110;-72